Aeneas, Washington
Current Conditions -  °F | °C
As of 12:17 PM on Saturday 20 Dec 2014 (Local Time) from KOMK Reporting Station
Light Rain Light Rain  
Wind Chill: 34°   Ceiling: 300
Heat Index: 34°   Visibility: 4mi
Dew Point: 33°   Wind: 0mph
Humidity: 96%   Direction: NA
Pressure: 29.74"   Gusts: NA
Location:  48.6708°N, 119.278°W
Report Text: KOMK 202017Z AUTO 00000KT 4SM -RA BR BKN003 OVC013 01/01 A2974 RMK AO2 P0000 T00110006
Loading
Personal Weather Stations






























Interactive Weather Map New forecast layout! Learn more

10-Day Weather Forecast

Advertisements
Track Severe Weather on mobile